Time;durP1;ratioP1;P1;durP2;ratioP2;P2;SDS_P1;SDS_P2;PMS_P1;PMS_P2;Temp;Humidity;BMP_temperature;BMP_pressure;BME280_temperature;BME280_humidity;BME280_pressure;Samples;Min_cycle;Max_cycle;Signal;HPM_P1;HPM_P2
2022/11/19 00:02:25;;;;;;;10.70;4.60;;;;;;;-2.93;85.72;99495.30;105736;1296;73747;-77
2022/11/19 00:05:13;;;;;;;9.00;3.90;;;;;;;-2.91;85.22;99496.63;105588;1303;57302;-77
2022/11/19 00:08:03;;;;;;;9.20;3.70;;;;;;;-2.95;84.81;99494.34;104909;1299;1002633;-77
2022/11/19 00:10:51;;;;;;;9.20;4.40;;;;;;;-2.96;85.30;99492.45;105498;1299;74097;-77
2022/11/19 00:13:41;;;;;;;12.70;5.20;;;;;;;-2.99;85.23;99491.98;104950;1297;1002788;-76
2022/11/19 00:16:29;;;;;;;13.40;5.90;;;;;;;-2.99;85.16;99488.88;105059;1291;1002372;-78
2022/11/19 00:19:17;;;;;;;10.90;4.60;;;;;;;-2.97;85.20;99483.62;105023;1297;1002563;-77
2022/11/19 00:22:05;;;;;;;11.80;5.10;;;;;;;-3.01;84.48;99480.98;105799;1292;58733;-78
2022/11/19 00:24:52;;;;;;;10.80;4.80;;;;;;;-3.04;84.75;99483.67;105824;1292;72767;-79
2022/11/19 00:27:40;;;;;;;10.60;4.90;;;;;;;-3.05;84.56;99480.58;105976;1291;66660;-78
2022/11/19 00:30:28;;;;;;;10.80;5.00;;;;;;;-3.04;84.78;99482.44;105800;1292;72377;-79
2022/11/19 00:33:37;;;;;;;11.70;4.80;;;;;;;-2.98;85.22;99483.28;105812;1282;57163;-75
2022/11/19 00:36:25;;;;;;;11.10;4.30;;;;;;;-2.92;85.47;99486.05;105924;1292;58730;-76
2022/11/19 00:39:13;;;;;;;9.80;4.10;;;;;;;-2.90;85.04;99483.56;105946;1292;71442;-77
2022/11/19 00:42:00;;;;;;;13.40;5.10;;;;;;;-2.91;85.04;99482.73;105932;1291;69069;-77
2022/11/19 00:44:49;;;;;;;13.40;5.30;;;;;;;-2.95;85.20;99476.77;105179;1290;1002644;-79
2022/11/19 00:47:37;;;;;;;12.80;5.40;;;;;;;-2.94;85.67;99479.00;105813;1301;57318;-77
2022/11/19 00:50:24;;;;;;;11.40;4.90;;;;;;;-2.94;85.77;99477.97;105932;1293;59983;-77
2022/11/19 00:53:12;;;;;;;11.70;5.20;;;;;;;-2.92;86.08;99480.83;105818;1293;72863;-77
2022/11/19 00:56:02;;;;;;;14.00;4.90;;;;;;;-2.96;85.93;99475.08;105935;1291;66425;-77
2022/11/19 00:58:51;;;;;;;10.90;4.80;;;;;;;-3.00;86.42;99471.71;105910;1292;73441;-77
2022/11/19 01:01:39;;;;;;;10.90;4.40;;;;;;;-3.05;86.84;99467.02;105853;1284;57235;-78
2022/11/19 01:04:27;;;;;;;9.10;4.30;;;;;;;-3.15;87.20;99461.09;105819;1292;60002;-77
2022/11/19 01:07:14;;;;;;;11.10;5.10;;;;;;;-3.22;87.88;99463.55;105058;1292;1002057;-78
2022/11/19 01:10:02;;;;;;;11.20;4.40;;;;;;;-3.28;88.35;99461.30;105894;1292;68628;-77
2022/11/19 01:15:56;;;;;;;11.90;4.70;;;;;;;-3.30;88.32;99459.98;105900;1291;59645;-78
2022/11/19 01:18:47;;;;;;;10.60;4.50;;;;;;;-3.28;88.40;99461.64;105924;1291;60357;-77
2022/11/19 01:21:36;;;;;;;10.30;4.10;;;;;;;-3.25;88.42;99459.66;105801;1298;72857;-78
2022/11/19 01:24:23;;;;;;;11.60;4.70;;;;;;;-3.26;88.25;99457.59;105807;1293;67643;-77
2022/11/19 01:27:11;;;;;;;11.50;4.50;;;;;;;-3.27;88.43;99452.41;105916;1291;72352;-78
2022/11/19 01:29:59;;;;;;;10.60;4.50;;;;;;;-3.29;88.20;99453.17;105936;1292;57160;-76
2022/11/19 01:32:46;;;;;;;13.50;5.60;;;;;;;-3.28;88.38;99448.98;105825;1291;57851;-77
2022/11/19 01:35:35;;;;;;;13.30;6.00;;;;;;;-3.29;88.47;99450.75;105721;1295;72931;-77
2022/11/19 01:38:23;;;;;;;11.40;4.90;;;;;;;-3.28;88.50;99445.67;105711;1295;68861;-77
2022/11/19 01:41:11;;;;;;;12.50;5.40;;;;;;;-3.26;88.80;99442.33;105696;1298;73460;-77
2022/11/19 01:44:06;;;;;;;10.80;3.70;;;;;;;-3.20;89.01;99439.39;105719;1301;57226;-78
2022/11/19 01:46:53;;;;;;;10.60;4.90;;;;;;;-3.20;88.63;99434.20;104956;1298;1002493;-77
2022/11/19 01:49:41;;;;;;;12.70;5.00;;;;;;;-3.27;89.06;99430.57;105779;1292;70839;-77
2022/11/19 01:52:29;;;;;;;10.50;4.60;;;;;;;-3.36;89.48;99425.14;105797;1296;68910;-78
2022/11/19 01:55:17;;;;;;;11.90;5.20;;;;;;;-3.43;89.97;99426.39;105730;1295;71169;-79
2022/11/19 01:58:06;;;;;;;13.80;5.40;;;;;;;-3.49;90.28;99424.46;105701;1299;58456;-78
2022/11/19 02:00:54;;;;;;;11.60;5.30;;;;;;;-3.49;90.27;99423.61;105798;1287;60260;-79
2022/11/19 02:03:42;;;;;;;11.30;4.80;;;;;;;-3.51;90.55;99427.65;105024;1294;1002381;-79
2022/11/19 02:06:32;;;;;;;9.90;4.00;;;;;;;-3.51;90.13;99431.30;104612;1296;1002762;-79
2022/11/19 02:09:20;;;;;;;12.80;5.30;;;;;;;-3.51;90.43;99424.70;105707;1300;73487;-79
2022/11/19 02:12:27;;;;;;;14.90;5.80;;;;;;;-3.50;90.41;99422.06;105038;1294;1002251;-79
2022/11/19 02:15:38;;;;;;;11.70;5.10;;;;;;;-3.45;90.08;99410.99;105818;1295;60410;-80
2022/11/19 02:18:56;;;;;;;14.30;5.40;;;;;;;-3.45;90.20;99412.03;105653;1290;71471;-80
2022/11/19 02:22:28;;;;;;;11.80;5.00;;;;;;;-3.43;90.36;99412.83;105803;1291;66324;-79
2022/11/19 02:25:38;;;;;;;12.00;4.90;;;;;;;-3.44;91.01;99410.79;105281;1302;73425;-76
2022/11/19 02:28:52;;;;;;;10.80;4.40;;;;;;;-3.45;91.35;99409.42;105326;1301;57312;-78
2022/11/19 02:32:15;;;;;;;12.50;4.80;;;;;;;-3.48;90.74;99405.02;105207;1308;60075;-78
2022/11/19 02:35:20;;;;;;;14.00;5.70;;;;;;;-3.51;91.19;99403.54;105044;1301;73209;-79
2022/11/19 02:38:20;;;;;;;12.20;4.90;;;;;;;-3.53;91.22;99398.23;105042;1296;66531;-78
2022/11/19 02:41:35;;;;;;;13.60;6.00;;;;;;;-3.56;91.29;99394.33;105026;1301;72440;-76
2022/11/19 02:47:46;;;;;;;14.90;5.30;;;;;;;-3.60;91.51;99394.61;105190;1298;59164;-75
2022/11/19 02:50:49;;;;;;;15.20;7.00;;;;;;;-3.60;91.86;99385.95;105212;1301;73880;-76
2022/11/19 02:53:37;;;;;;;15.40;6.60;;;;;;;-3.58;91.91;99382.26;105105;1308;69780;-76
2022/11/19 02:56:51;;;;;;;16.60;7.20;;;;;;;-3.55;91.72;99379.03;105220;1300;72321;-77
2022/11/19 03:06:27;;;;;;;14.70;5.70;;;;;;;-3.44;91.70;99372.95;105788;1286;71781;-77
2022/11/19 03:09:15;;;;;;;14.60;6.30;;;;;;;-3.43;91.03;99367.02;105595;1297;66225;-78
2022/11/19 03:12:20;;;;;;;13.60;5.60;;;;;;;-3.42;91.37;99366.30;105765;1291;72557;-78
2022/11/19 03:16:46;;;;;;;11.40;4.70;;;;;;;-3.42;91.38;99363.70;105495;1295;57282;-77
2022/11/19 03:19:25;;;;;;;12.70;4.70;;;;;;;-3.41;91.54;99363.52;105709;1298;61766;-78
2022/11/19 03:22:33;;;;;;;13.20;5.80;;;;;;;-3.44;91.65;99362.02;105769;1288;71596;-80
2022/11/19 03:25:29;;;;;;;14.90;6.60;;;;;;;-3.46;91.52;99360.89;104987;1295;1002652;-79
2022/11/19 03:28:29;;;;;;;14.50;6.50;;;;;;;-3.45;91.76;99362.09;105775;1287;72469;-78
2022/11/19 03:31:21;;;;;;;14.90;6.70;;;;;;;-3.48;91.87;99363.40;105596;1295;57172;-78
2022/11/19 03:34:17;;;;;;;13.80;7.10;;;;;;;-3.49;91.68;99364.47;105579;1295;60422;-78
2022/11/19 03:37:09;;;;;;;12.60;6.20;;;;;;;-3.49;91.68;99366.04;105657;1298;71686;-78
2022/11/19 03:40:00;;;;;;;15.10;6.60;;;;;;;-3.50;91.87;99364.13;105781;1294;67795;-79
2022/11/19 03:42:53;;;;;;;13.80;5.90;;;;;;;-3.51;91.88;99362.80;105573;1295;72700;-78
2022/11/19 03:45:45;;;;;;;13.10;4.90;;;;;;;-3.55;92.15;99365.67;104988;1300;1002343;-79
2022/11/19 03:48:35;;;;;;;15.10;6.60;;;;;;;-3.56;91.97;99368.30;105666;1298;60224;-78
2022/11/19 03:51:39;;;;;;;14.90;6.40;;;;;;;-3.55;91.84;99365.85;105719;1294;72733;-78
2022/11/19 03:54:27;;;;;;;16.40;6.90;;;;;;;-3.52;92.13;99367.52;105046;1293;1002395;-77
2022/11/19 03:57:18;;;;;;;15.40;6.60;;;;;;;-3.50;92.13;99367.09;105793;1295;72623;-78
2022/11/19 04:00:07;;;;;;;17.80;7.70;;;;;;;-3.47;92.05;99365.43;105675;1295;57194;-78
2022/11/19 04:03:02;;;;;;;15.80;7.30;;;;;;;-3.44;91.96;99366.55;104934;1293;1002400;-77
2022/11/19 04:05:50;;;;;;;15.80;7.70;;;;;;;-3.43;91.95;99362.86;105731;1295;70509;-78
2022/11/19 04:08:38;;;;;;;16.80;6.80;;;;;;;-3.39;91.99;99366.74;105628;1291;66591;-79
2022/11/19 04:11:26;;;;;;;17.30;8.10;;;;;;;-3.39;91.88;99366.05;105669;1295;73716;-79
2022/11/19 04:14:13;;;;;;;16.00;7.90;;;;;;;-3.40;91.58;99363.83;105647;1297;58816;-78
2022/11/19 04:17:01;;;;;;;16.40;7.80;;;;;;;-3.40;91.54;99368.34;105718;1295;58678;-78
2022/11/19 04:19:48;;;;;;;13.00;5.30;;;;;;;-3.39;91.22;99366.08;105587;1297;71614;-78
2022/11/19 04:22:36;;;;;;;13.90;6.40;;;;;;;-3.44;91.73;99363.77;105463;1294;68092;-77
2022/11/19 04:25:24;;;;;;;17.20;7.40;;;;;;;-3.47;91.51;99360.05;104757;1294;1002869;-78
2022/11/19 04:28:12;;;;;;;15.60;7.20;;;;;;;-3.49;91.98;99361.87;105716;1296;58428;-77
2022/11/19 04:31:00;;;;;;;15.40;7.30;;;;;;;-3.53;91.71;99359.91;105705;1295;59292;-77
2022/11/19 04:33:48;;;;;;;12.30;6.60;;;;;;;-3.55;91.92;99358.05;105611;1290;73110;-78
2022/11/19 04:36:38;;;;;;;15.10;7.10;;;;;;;-3.56;91.70;99360.84;105712;1295;66157;-79
2022/11/19 04:39:26;;;;;;;13.70;6.60;;;;;;;-3.57;91.65;99360.55;105780;1288;72699;-80
2022/11/19 04:42:14;;;;;;;15.20;7.10;;;;;;;-3.60;91.65;99359.61;105778;1291;57214;-79
2022/11/19 04:45:02;;;;;;;15.10;6.70;;;;;;;-3.65;91.34;99358.87;105724;1295;58635;-80
2022/11/19 04:47:50;;;;;;;14.90;7.60;;;;;;;-3.68;91.56;99360.02;105767;1285;73889;-78
2022/11/19 04:50:38;;;;;;;15.30;6.40;;;;;;;-3.71;91.54;99360.28;105694;1295;65920;-79
2022/11/19 04:53:25;;;;;;;16.00;6.90;;;;;;;-3.73;91.54;99362.06;105760;1296;73380;-79
2022/11/19 04:56:13;;;;;;;15.00;6.80;;;;;;;-3.74;91.41;99356.73;105689;1294;57217;-79
2022/11/19 04:59:02;;;;;;;15.80;7.10;;;;;;;-3.76;91.54;99355.41;104980;1294;1002605;-78
2022/11/19 05:01:51;;;;;;;13.70;6.30;;;;;;;-3.77;91.37;99354.20;105556;1293;72838;-79
2022/11/19 05:04:38;;;;;;;19.40;7.50;;;;;;;-3.79;91.40;99349.58;105753;1287;66649;-77
2022/11/19 05:07:26;;;;;;;13.20;6.40;;;;;;;-3.77;91.30;99346.77;105694;1294;72478;-79
2022/11/19 05:10:14;;;;;;;12.10;5.20;;;;;;;-3.78;91.49;99344.36;105755;1294;58651;-77
2022/11/19 05:13:02;;;;;;;15.50;7.10;;;;;;;-3.81;91.53;99339.59;105780;1293;60148;-78
2022/11/19 05:15:50;;;;;;;17.00;8.10;;;;;;;-3.83;91.92;99344.70;105721;1293;72722;-77
2022/11/19 05:18:39;;;;;;;15.90;6.60;;;;;;;-3.86;91.92;99344.09;105767;1287;67616;-77
2022/11/19 05:21:27;;;;;;;19.40;7.40;;;;;;;-3.86;92.21;99352.75;105701;1293;71329;-77
2022/11/19 05:24:15;;;;;;;16.70;7.70;;;;;;;-3.86;92.06;99351.02;105578;1288;57470;-77
2022/11/19 05:27:03;;;;;;;15.60;7.70;;;;;;;-3.85;91.65;99350.83;105649;1294;60119;-78
2022/11/19 05:29:51;;;;;;;16.00;7.70;;;;;;;-3.83;91.29;99348.84;105372;1305;72960;-77
2022/11/19 05:32:39;;;;;;;16.10;7.80;;;;;;;-3.80;91.63;99351.71;105529;1297;67827;-80
2022/11/19 05:35:27;;;;;;;17.60;7.60;;;;;;;-3.80;91.58;99353.61;105485;1294;72842;-77
2022/11/19 05:38:15;;;;;;;16.10;7.50;;;;;;;-3.81;91.67;99356.25;105453;1295;57563;-78
2022/11/19 05:41:03;;;;;;;18.10;8.50;;;;;;;-3.80;91.80;99357.27;105472;1298;58654;-78
2022/11/19 05:43:51;;;;;;;15.70;7.60;;;;;;;-3.80;91.80;99362.43;105649;1296;72776;-78
2022/11/19 05:46:38;;;;;;;19.00;8.40;;;;;;;-3.75;92.09;99360.75;105371;1297;204102;-77
2022/11/19 05:49:26;;;;;;;16.90;7.90;;;;;;;-3.68;92.13;99360.55;104768;1298;1002800;-77
2022/11/19 05:52:14;;;;;;;16.10;7.90;;;;;;;-3.65;91.71;99362.00;105639;1298;57307;-78
2022/11/19 05:55:02;;;;;;;17.60;7.40;;;;;;;-3.67;91.65;99365.36;105515;1297;60081;-78
2022/11/19 05:57:50;;;;;;;13.50;6.00;;;;;;;-3.67;91.88;99372.30;104735;1293;1002879;-76
2022/11/19 06:00:37;;;;;;;17.80;8.30;;;;;;;-3.65;92.04;99372.59;104921;1295;1002238;-77
2022/11/19 06:03:25;;;;;;;18.90;8.60;;;;;;;-3.65;92.04;99370.34;104967;1293;1002433;-79
2022/11/19 06:06:14;;;;;;;18.70;8.30;;;;;;;-3.62;92.16;99372.14;105419;1294;57213;-77
2022/11/19 06:09:03;;;;;;;17.20;7.50;;;;;;;-3.61;91.93;99375.07;105774;1295;59062;-77
2022/11/19 06:11:50;;;;;;;16.30;8.20;;;;;;;-3.61;91.97;99368.47;105652;1287;73138;-77
2022/11/19 06:14:38;;;;;;;20.30;9.80;;;;;;;-3.60;91.81;99370.69;105763;1295;67760;-78
2022/11/19 06:17:25;;;;;;;18.20;8.90;;;;;;;-3.59;91.58;99366.15;105781;1293;71289;-77
2022/11/19 06:20:13;;;;;;;15.90;7.70;;;;;;;-3.58;91.84;99365.45;105710;1287;57312;-79
2022/11/19 06:23:01;;;;;;;16.60;8.40;;;;;;;-3.58;91.89;99365.59;105755;1295;60032;-78
2022/11/19 06:25:49;;;;;;;19.30;9.20;;;;;;;-3.61;92.05;99362.56;105758;1287;73004;-79
2022/11/19 06:28:37;;;;;;;17.30;8.80;;;;;;;-3.61;92.07;99367.23;105700;1288;66403;-77
2022/11/19 06:31:25;;;;;;;18.00;9.30;;;;;;;-3.59;91.98;99364.09;105750;1293;72412;-77
2022/11/19 06:34:14;;;;;;;14.90;7.70;;;;;;;-3.57;92.06;99369.20;104975;1294;1002397;-78
2022/11/19 06:37:01;;;;;;;18.30;8.70;;;;;;;-3.56;91.96;99369.52;105780;1285;60293;-77
2022/11/19 06:39:49;;;;;;;16.90;7.90;;;;;;;-3.57;91.80;99366.79;105768;1294;72732;-79
2022/11/19 06:42:37;;;;;;;17.00;7.80;;;;;;;-3.58;91.45;99369.96;105779;1294;68258;-79
2022/11/19 06:45:25;;;;;;;15.30;7.30;;;;;;;-3.60;91.64;99372.25;105759;1293;72791;-78
2022/11/19 06:48:13;;;;;;;17.90;8.70;;;;;;;-3.62;91.68;99376.98;105701;1292;58611;-78
2022/11/19 06:51:01;;;;;;;17.90;8.90;;;;;;;-3.61;91.63;99381.81;105709;1295;60032;-78
2022/11/19 06:53:49;;;;;;;16.20;7.60;;;;;;;-3.56;92.14;99386.18;105642;1301;71409;-79
2022/11/19 06:56:37;;;;;;;17.70;8.20;;;;;;;-3.50;91.77;99386.17;105696;1295;66477;-78
2022/11/19 06:59:25;;;;;;;16.00;8.30;;;;;;;-3.47;91.72;99390.23;105752;1294;71111;-77
2022/11/19 07:02:12;;;;;;;17.10;8.40;;;;;;;-3.49;91.43;99390.81;105648;1294;57191;-79
2022/11/19 07:05:07;;;;;;;14.40;6.30;;;;;;;-3.47;91.65;99391.46;104881;1302;1002091;-76
2022/11/19 07:07:55;;;;;;;13.20;5.70;;;;;;;-3.41;91.92;99396.30;105767;1287;72980;-75
2022/11/19 07:10:49;;;;;;;19.60;9.10;;;;;;;-3.38;91.73;99391.00;105011;1295;1002096;-76
2022/11/19 07:16:44;;;;;;;18.60;9.80;;;;;;;-3.33;91.08;99387.02;104999;1295;1002657;-75
2022/11/19 07:19:31;;;;;;;16.70;6.90;;;;;;;-3.30;90.81;99382.60;105595;1291;61534;-75
2022/11/19 07:22:19;;;;;;;19.90;10.00;;;;;;;-3.26;91.16;99379.88;105752;1285;72569;-75
2022/11/19 07:25:11;;;;;;;19.60;8.70;;;;;;;-3.20;90.87;99382.98;105754;1288;66704;-77
2022/11/19 07:27:59;;;;;;;18.50;9.80;;;;;;;-3.13;90.93;99377.88;105014;1293;1002253;-76
2022/11/19 07:30:47;;;;;;;21.50;10.30;;;;;;;-3.05;90.86;99375.73;105025;1295;1002381;-76
2022/11/19 07:33:38;;;;;;;19.90;9.30;;;;;;;-3.00;90.36;99381.30;105761;1292;58718;-78
2022/11/19 07:36:25;;;;;;;19.90;10.50;;;;;;;-2.97;90.05;99379.80;105832;1292;70923;-77
2022/11/19 07:39:13;;;;;;;20.10;10.50;;;;;;;-2.94;89.84;99377.10;105848;1292;67866;-76
2022/11/19 07:45:11;;;;;;;21.10;10.20;;;;;;;-2.96;89.58;99377.66;105718;1287;57241;-77
2022/11/19 07:47:59;;;;;;;21.10;11.10;;;;;;;-2.97;89.19;99377.56;105141;1288;1002400;-76
2022/11/19 07:50:50;;;;;;;23.80;10.90;;;;;;;-2.95;89.26;99378.86;105852;1291;71712;-75
2022/11/19 07:53:43;;;;;;;21.20;9.90;;;;;;;-2.93;89.16;99379.15;105870;1288;66199;-79
2022/11/19 07:56:31;;;;;;;21.70;11.00;;;;;;;-2.93;88.73;99380.56;105699;1288;72636;-76
2022/11/19 07:59:19;;;;;;;19.40;9.70;;;;;;;-2.94;88.58;99381.26;105719;1290;57237;-77
2022/11/19 08:02:13;;;;;;;21.50;10.70;;;;;;;-2.92;88.62;99381.19;105868;1293;60325;-76
2022/11/19 08:05:01;;;;;;;19.50;9.60;;;;;;;-2.90;88.70;99386.16;105854;1295;71789;-76
2022/11/19 08:07:48;;;;;;;22.30;11.20;;;;;;;-2.97;88.31;99385.16;105868;1285;66721;-76
2022/11/19 08:10:36;;;;;;;23.10;11.50;;;;;;;-2.99;88.59;99388.89;105839;1292;71115;-78
2022/11/19 08:13:24;;;;;;;20.00;10.80;;;;;;;-2.95;88.78;99385.80;105734;1293;58461;-76
2022/11/19 08:18:11;;;;;;;19.70;8.50;;;;;;;-2.88;88.80;99387.15;105875;1293;59989;-76
2022/11/19 08:19:25;;;;;;;20.00;9.90;;;;;;;-2.80;88.40;99390.20;105853;1292;72680;-72
2022/11/19 08:22:13;;;;;;;18.70;9.50;;;;;;;-2.78;87.65;99389.08;105845;1294;67754;-71
2022/11/19 08:25:02;;;;;;;17.40;8.90;;;;;;;-2.86;87.22;99391.06;105819;1292;72737;-72
2022/11/19 08:27:50;;;;;;;20.40;9.70;;;;;;;-2.93;87.29;99390.45;104947;1295;1002174;-72
2022/11/19 08:30:41;;;;;;;17.50;10.00;;;;;;;-2.95;87.74;99391.38;105857;1284;59996;-72
2022/11/19 08:33:29;;;;;;;20.50;10.70;;;;;;;-2.91;87.68;99392.09;105729;1294;73056;-72
2022/11/19 08:36:17;;;;;;;22.00;11.00;;;;;;;-2.85;87.40;99388.77;105877;1291;69112;-72
2022/11/19 08:39:05;;;;;;;16.80;8.20;;;;;;;-2.63;87.63;99387.53;105827;1292;72487;-73
2022/11/19 08:44:59;;;;;;;20.90;9.50;;;;;;;-2.50;84.75;99389.67;105135;1291;1002040;-72
2022/11/19 08:47:47;;;;;;;19.50;9.80;;;;;;;-2.44;85.09;99388.95;105832;1292;74094;-72
2022/11/19 08:50:35;;;;;;;17.90;9.80;;;;;;;-2.38;84.81;99388.41;105133;1294;1003046;-72
2022/11/19 08:53:23;;;;;;;18.40;9.30;;;;;;;-2.30;84.67;99389.16;105825;1292;71305;-74
2022/11/19 08:56:11;;;;;;;19.90;9.90;;;;;;;-2.26;84.13;99387.60;105680;1285;57161;-73
2022/11/19 08:59:04;;;;;;;18.80;10.40;;;;;;;-2.16;84.11;99390.38;105730;1292;60388;-71
2022/11/19 09:01:52;;;;;;;23.10;10.00;;;;;;;-2.08;83.64;99388.88;105092;1292;1002941;-74
2022/11/19 09:04:40;;;;;;;19.60;9.50;;;;;;;-2.01;83.12;99390.19;105744;1295;68975;-71
2022/11/19 09:07:28;;;;;;;14.60;7.20;;;;;;;-1.95;82.41;99390.52;105820;1292;72658;-73
2022/11/19 09:10:17;;;;;;;17.30;8.60;;;;;;;-1.89;81.68;99388.88;104816;1297;1002625;-74
2022/11/19 09:13:04;;;;;;;22.40;10.30;;;;;;;-1.84;81.13;99390.08;105835;1285;61551;-73
2022/11/19 09:15:52;;;;;;;18.70;9.50;;;;;;;-1.82;81.12;99389.67;105728;1290;72743;-72
2022/11/19 09:18:41;;;;;;;19.90;10.20;;;;;;;-1.86;79.88;99393.98;105642;1282;68279;-73
2022/11/19 09:21:29;;;;;;;17.90;9.40;;;;;;;-1.80;80.15;99398.47;104966;1295;1002220;-72
2022/11/19 09:24:21;;;;;;;18.80;9.40;;;;;;;-1.83;79.57;99398.60;105743;1300;57750;-72
2022/11/19 09:27:10;;;;;;;19.30;10.30;;;;;;;-1.75;79.82;99402.09;105869;1290;58904;-76
2022/11/19 09:29:57;;;;;;;18.80;10.10;;;;;;;-1.66;80.59;99403.16;105686;1292;73843;-75
2022/11/19 09:32:45;;;;;;;21.70;9.30;;;;;;;-1.61;80.42;99397.56;105740;1288;66314;-76
2022/11/19 09:35:33;;;;;;;21.40;9.70;;;;;;;-1.39;80.75;99396.02;105671;1290;72740;-76
2022/11/19 09:38:21;;;;;;;20.00;10.40;;;;;;;-1.31;78.88;99392.77;105849;1291;57252;-76
2022/11/19 09:41:16;;;;;;;19.60;10.40;;;;;;;-1.19;78.87;99389.49;105705;1292;60178;-76
2022/11/19 09:44:15;;;;;;;18.40;9.10;;;;;;;-1.07;78.60;99389.20;105124;1285;1002518;-76
2022/11/19 09:47:21;;;;;;;21.00;10.00;;;;;;;-1.03;78.69;99383.45;105859;1285;67637;-75
2022/11/19 09:50:29;;;;;;;17.70;9.70;;;;;;;-1.00;78.32;99387.52;105719;1292;72660;-76
2022/11/19 09:53:20;;;;;;;18.60;10.30;;;;;;;-1.11;77.44;99389.72;104995;1292;1002958;-75
2022/11/19 09:56:16;;;;;;;18.40;10.00;;;;;;;-1.13;76.36;99388.57;105668;1303;60281;-75
2022/11/19 09:59:32;;;;;;;18.10;9.40;;;;;;;-0.94;76.63;99377.17;105734;1295;71764;-77
2022/11/19 10:02:22;;;;;;;17.10;9.80;;;;;;;-0.09;72.91;99374.91;105861;1292;66447;-76
2022/11/19 10:05:16;;;;;;;15.80;7.90;;;;;;;0.84;69.12;99368.15;104932;1292;1002742;-75
2022/11/19 10:08:30;;;;;;;17.80;9.90;;;;;;;1.01;68.19;99363.50;105498;1296;57395;-77
2022/11/19 10:11:39;;;;;;;18.10;9.90;;;;;;;1.21;66.30;99367.09;105734;1287;58044;-77
2022/11/19 10:14:59;;;;;;;16.90;9.00;;;;;;;0.90;65.80;99365.23;105856;1287;71051;-76
2022/11/19 10:17:56;;;;;;;16.40;9.00;;;;;;;0.73;66.61;99370.12;104553;1298;1002426;-76
2022/11/19 10:21:16;;;;;;;19.10;9.40;;;;;;;0.62;67.25;99368.84;105464;1297;72794;-77
2022/11/19 10:24:22;;;;;;;16.30;8.90;;;;;;;0.59;67.49;99369.20;105178;1300;58000;-76
2022/11/19 10:27:30;;;;;;;17.50;9.60;;;;;;;0.52;67.34;99361.50;105484;1290;60207;-77
2022/11/19 10:30:29;;;;;;;18.30;8.90;;;;;;;0.39;67.66;99363.34;104624;1296;1002185;-78
2022/11/19 10:33:42;;;;;;;16.10;8.60;;;;;;;0.10;69.45;99365.35;105479;1297;68024;-76
2022/11/19 10:37:06;;;;;;;17.70;9.70;;;;;;;-0.12;70.18;99367.06;105336;1301;72447;-76
2022/11/19 10:40:20;;;;;;;16.30;9.10;;;;;;;-0.23;71.39;99365.06;103939;1313;1002225;-77
2022/11/19 10:43:27;;;;;;;17.40;8.80;;;;;;;-0.27;72.14;99363.52;104745;1306;61224;-76
2022/11/19 10:46:24;;;;;;;16.50;8.20;;;;;;;-0.43;72.03;99361.61;105014;1305;71384;-76
2022/11/19 10:49:12;;;;;;;18.60;9.60;;;;;;;-0.56;72.88;99362.69;104825;1290;66566;-76
2022/11/19 10:52:00;;;;;;;19.60;10.00;;;;;;;-0.57;73.30;99367.44;105402;1299;71339;-77
2022/11/19 10:54:51;;;;;;;16.10;7.70;;;;;;;-0.62;73.64;99361.04;105361;1294;57469;-76
2022/11/19 10:57:40;;;;;;;19.20;10.50;;;;;;;-0.74;74.27;99361.89;105213;1302;58965;-77
2022/11/19 11:00:28;;;;;;;19.90;10.90;;;;;;;-0.93;74.54;99364.08;104384;1302;1002262;-75
2022/11/19 11:03:27;;;;;;;21.00;10.70;;;;;;;-1.17;74.46;99365.91;105033;1296;67708;-77
2022/11/19 11:06:15;;;;;;;18.90;9.90;;;;;;;-1.26;75.90;99363.33;105075;1304;73998;-75
2022/11/19 11:09:03;;;;;;;19.80;10.20;;;;;;;-1.36;75.91;99364.42;105066;1301;57311;-76
2022/11/19 11:15:20;;;;;;;16.40;7.40;;;;;;;-1.57;76.79;99363.84;105165;1308;72802;-76
2022/11/19 11:18:10;;;;;;;16.10;8.00;;;;;;;-1.56;77.40;99362.39;105132;1291;1002296;-76
2022/11/19 11:20:59;;;;;;;17.80;8.60;;;;;;;-1.54;77.36;99363.05;105735;1294;71187;-76
2022/11/19 11:23:52;;;;;;;17.30;8.50;;;;;;;-1.54;77.61;99363.74;105733;1293;58503;-76
2022/11/19 11:26:40;;;;;;;18.00;9.10;;;;;;;-1.67;77.17;99365.80;105755;1295;58620;-76
2022/11/19 11:29:28;;;;;;;20.70;11.20;;;;;;;-1.81;77.27;99369.82;105868;1291;73220;-78
2022/11/19 11:32:30;;;;;;;22.80;10.30;;;;;;;-2.00;77.64;99368.95;105862;1285;67508;-76
2022/11/19 11:35:37;;;;;;;22.20;10.90;;;;;;;-1.94;78.68;99369.27;105856;1291;71152;-77
2022/11/19 11:38:26;;;;;;;20.40;10.70;;;;;;;-1.87;78.98;99366.88;105854;1300;57992;-78
2022/11/19 11:41:19;;;;;;;19.30;11.00;;;;;;;-1.88;78.96;99367.97;104938;1290;1002145;-76
2022/11/19 11:44:31;;;;;;;21.80;10.00;;;;;;;-2.11;77.28;99366.56;104987;1295;1002422;-76
2022/11/19 11:47:25;;;;;;;20.10;8.00;;;;;;;-2.21;77.57;99371.83;105772;1291;66349;-77
2022/11/19 11:50:27;;;;;;;20.20;10.50;;;;;;;-2.31;78.34;99370.59;104992;1300;1002575;-77
2022/11/19 11:53:26;;;;;;;19.70;10.30;;;;;;;-2.34;79.32;99364.97;105707;1287;57435;-77
2022/11/19 11:56:20;;;;;;;18.90;9.90;;;;;;;-2.33;79.51;99361.09;105756;1296;60053;-75
2022/11/19 11:59:34;;;;;;;19.00;8.80;;;;;;;-2.39;79.31;99362.19;105730;1295;73022;-76
2022/11/19 12:02:21;;;;;;;19.90;9.50;;;;;;;-2.45;78.63;99367.77;105117;1295;1002523;-75
2022/11/19 12:05:16;;;;;;;20.00;9.90;;;;;;;-2.47;78.70;99368.90;105836;1292;72424;-77
2022/11/19 12:08:29;;;;;;;18.50;10.00;;;;;;;-2.47;79.23;99372.03;105734;1287;57231;-76
2022/11/19 12:11:55;;;;;;;17.00;8.30;;;;;;;-2.38;80.05;99370.14;105669;1294;60055;-78
2022/11/19 12:15:02;;;;;;;21.10;9.40;;;;;;;-2.37;79.05;99366.99;105860;1291;71751;-78
2022/11/19 12:18:09;;;;;;;21.50;11.50;;;;;;;-2.37;79.17;99364.73;105882;1295;67740;-76
2022/11/19 12:21:07;;;;;;;20.00;9.40;;;;;;;-2.43;79.33;99365.10;105840;1295;71071;-76
2022/11/19 12:24:17;;;;;;;23.10;10.50;;;;;;;-2.46;80.09;99365.89;105841;1292;58737;-78
2022/11/19 12:27:54;;;;;;;20.90;10.30;;;;;;;-2.60;79.70;99365.70;105836;1292;58744;-78
2022/11/19 12:30:54;;;;;;;19.30;10.00;;;;;;;-2.57;80.40;99363.86;105858;1290;72706;-78
2022/11/19 12:34:04;;;;;;;19.80;9.30;;;;;;;-2.53;80.39;99364.06;105850;1292;67530;-76
2022/11/19 12:37:39;;;;;;;21.40;10.70;;;;;;;-2.53;80.38;99363.38;105674;1295;73749;-77
2022/11/19 12:40:36;;;;;;;20.80;11.10;;;;;;;-2.59;80.69;99360.10;105687;1295;59610;-77
2022/11/19 12:43:40;;;;;;;23.80;10.50;;;;;;;-2.60;80.64;99365.37;105701;1295;58292;-76
2022/11/19 12:47:05;;;;;;;21.40;9.90;;;;;;;-2.56;81.10;99361.76;105693;1294;73885;-77
2022/11/19 12:50:13;;;;;;;22.60;10.50;;;;;;;-2.59;80.23;99363.23;105659;1295;68051;-77
2022/11/19 12:53:16;;;;;;;22.80;10.80;;;;;;;-2.61;80.55;99364.17;104943;1284;1002448;-78
2022/11/19 12:56:33;;;;;;;19.30;9.00;;;;;;;-2.65;80.70;99359.63;105696;1287;57650;-78
2022/11/19 12:59:40;;;;;;;22.40;9.80;;;;;;;-2.66;80.59;99362.27;105691;1294;60163;-78
2022/11/19 13:02:34;;;;;;;19.80;9.90;;;;;;;-2.72;80.90;99366.13;105707;1294;72257;-78
2022/11/19 13:05:53;;;;;;;20.70;9.70;;;;;;;-2.74;80.99;99369.48;105598;1295;67888;-76
2022/11/19 13:08:48;;;;;;;20.80;10.40;;;;;;;-2.70;81.20;99371.27;105667;1295;71626;-77
2022/11/19 13:11:55;;;;;;;21.80;10.20;;;;;;;-2.67;81.40;99372.38;105667;1295;57287;-77
2022/11/19 13:14:52;;;;;;;18.10;9.60;;;;;;;-2.68;81.35;99370.15;105698;1295;58103;-77
2022/11/19 13:18:08;;;;;;;22.80;11.00;;;;;;;-2.68;81.81;99374.14;104918;1282;1002261;-78
2022/11/19 13:21:00;;;;;;;23.70;10.40;;;;;;;-2.71;81.98;99367.30;105658;1295;66529;-78
2022/11/19 13:23:51;;;;;;;25.20;11.70;;;;;;;-2.77;82.40;99369.42;105635;1298;73490;-76
2022/11/19 13:26:39;;;;;;;26.10;11.30;;;;;;;-2.74;82.76;99372.45;105570;1298;57336;-77
2022/11/19 13:29:41;;;;;;;25.50;12.70;;;;;;;-2.72;83.12;99372.55;104977;1295;1002106;-78
2022/11/19 13:32:39;;;;;;;24.80;11.30;;;;;;;-2.75;83.61;99372.48;105677;1288;72832;-77
2022/11/19 13:36:02;;;;;;;23.90;9.70;;;;;;;-2.77;83.90;99375.30;105573;1299;67649;-78
2022/11/19 13:39:03;;;;;;;25.20;12.30;;;;;;;-2.82;84.25;99375.64;105628;1303;71329;-77
2022/11/19 13:45:01;;;;;;;28.40;13.50;;;;;;;-2.89;85.01;99371.90;104737;1295;1002873;-78